Terminal Aerodrome Forecast
Issued by NWS Jackson, KY

Home | Current Version | Previous Version | Text Only | Print | Product List | Glossary On
Versions: 1 2 3 4 5 6 7 8 9 10 11 12 13 14 15 16 17 18
000
FTUS43 KJKL 281100
TAFLOZ
TAF
KLOZ 281136Z 2812/2912 00000KT P6SM SCT050 BKN150
     FM281500 24003KT P6SM SCT025 BKN035 BKN180
     FM282000 VRB03KT P6SM SCT030 BKN180=

USA.gov is the U.S. government's official web portal to all federal, state and local government web resources and services.